Time;durP1;ratioP1;P1;durP2;ratioP2;P2;SDS_P1;SDS_P2;PMS_P1;PMS_P2;Temp;Humidity;BMP_temperature;BMP_pressure;BME280_temperature;BME280_humidity;BME280_pressure;Samples;Min_cycle;Max_cycle;Signal;HPM_P1;HPM_P2
2023/04/13 00:02:08;;;;;;;1.07;0.80;;;;;;;;;;5048974;28;20429;-74
2023/04/13 00:04:48;;;;;;;1.73;1.63;;;;;;;;;;5048925;28;20481;-75
2023/04/13 00:07:26;;;;;;;0.90;0.90;;;;;;;;;;5048459;28;21372;-75
2023/04/13 00:10:01;;;;;;;0.70;0.70;;;;;;;;;;5047394;28;20450;-76
2023/04/13 00:12:32;;;;;;;0.90;0.90;;;;;;;;;;5046030;28;20457;-75
2023/04/13 00:15:01;;;;;;;1.17;1.07;;;;;;;;;;5043837;28;20485;-76
2023/04/13 00:17:35;;;;;;;0.90;0.90;;;;;;;;;;5039106;28;20689;-74
2023/04/13 00:20:25;;;;;;;1.07;1.00;;;;;;;;;;5036659;28;20446;-75
2023/04/13 00:22:58;;;;;;;0.90;0.90;;;;;;;;;;5036896;28;20459;-75
2023/04/13 00:25:30;;;;;;;0.80;0.80;;;;;;;;;;5035847;28;20446;-76
2023/04/13 00:28:05;;;;;;;0.73;0.73;;;;;;;;;;5033526;28;20534;-75
2023/04/13 00:30:33;;;;;;;1.33;1.07;;;;;;;;;;5033284;28;20991;-76
2023/04/13 00:33:04;;;;;;;0.87;0.87;;;;;;;;;;5031506;28;20501;-76
2023/04/13 00:35:57;;;;;;;2.73;0.90;;;;;;;;;;5031627;28;20520;-74
2023/04/13 00:38:28;;;;;;;1.20;1.10;;;;;;;;;;5032409;28;20454;-75
2023/04/13 00:41:01;;;;;;;0.90;0.90;;;;;;;;;;5034067;28;20467;-75
2023/04/13 00:43:29;;;;;;;1.10;1.10;;;;;;;;;;5036295;28;20513;-76
2023/04/13 00:46:04;;;;;;;0.93;0.93;;;;;;;;;;5037112;28;20582;-75
2023/04/13 00:48:40;;;;;;;0.80;0.80;;;;;;;;;;5038899;28;20453;-75
2023/04/13 00:51:14;;;;;;;0.87;0.87;;;;;;;;;;5042713;28;20888;-75
2023/04/13 00:53:48;;;;;;;0.70;0.70;;;;;;;;;;5045157;28;20454;-77
2023/04/13 00:56:22;;;;;;;0.90;0.90;;;;;;;;;;5041485;28;20834;-75
2023/04/13 00:58:53;;;;;;;0.87;0.87;;;;;;;;;;5040834;28;20450;-77
2023/04/13 01:01:22;;;;;;;1.00;1.00;;;;;;;;;;5042166;28;20485;-76
2023/04/13 01:03:52;;;;;;;1.27;0.90;;;;;;;;;;5040873;28;20853;-76
2023/04/13 01:06:28;;;;;;;1.63;0.90;;;;;;;;;;5040511;28;20481;-75
2023/04/13 01:09:14;;;;;;;0.83;0.83;;;;;;;;;;5040756;28;20454;-76
2023/04/13 01:11:58;;;;;;;1.07;1.03;;;;;;;;;;5040620;28;20504;-75
2023/04/13 01:14:39;;;;;;;1.07;1.07;;;;;;;;;;5041010;28;20530;-77
2023/04/13 01:17:14;;;;;;;1.30;1.20;;;;;;;;;;5042056;28;20470;-76
2023/04/13 01:19:51;;;;;;;0.80;0.80;;;;;;;;;;5060309;28;20487;-76
2023/04/13 01:22:29;;;;;;;0.80;0.80;;;;;;;;;;5059601;28;20523;-75
2023/04/13 01:25:21;;;;;;;0.83;0.83;;;;;;;;;;5060001;28;20484;-76
2023/04/13 01:28:00;;;;;;;1.60;1.50;;;;;;;;;;5062588;28;20530;-77
2023/04/13 01:30:38;;;;;;;0.80;0.80;;;;;;;;;;5061327;28;20460;-76
2023/04/13 01:33:10;;;;;;;1.43;0.90;;;;;;;;;;5065927;28;20445;-77
2023/04/13 01:38:34;;;;;;;0.80;0.80;;;;;;;;;;5065611;28;20495;-74
2023/04/13 01:41:03;;;;;;;1.00;1.00;;;;;;;;;;5067056;28;20452;-74
2023/04/13 01:43:39;;;;;;;1.03;0.93;;;;;;;;;;5067539;28;20450;-75
2023/04/13 01:46:34;;;;;;;;;;;;;;;;;;;;;
2023/04/13 01:49:09;;;;;;;2.20;0.90;;;;;;;;;;5064186;28;20440;-75
2023/04/13 01:51:53;;;;;;;1.20;1.10;;;;;;;;;;5063415;28;20506;-75
2023/04/13 01:57:09;;;;;;;0.90;0.90;;;;;;;;;;5061734;28;20533;-75
2023/04/13 01:59:55;;;;;;;0.93;0.93;;;;;;;;;;5061810;28;20452;-75
2023/04/13 02:05:20;;;;;;;1.27;1.00;;;;;;;;;;5059607;28;20481;-76
2023/04/13 02:07:47;;;;;;;1.10;1.10;;;;;;;;;;5059964;28;20999;-76
2023/04/13 02:10:18;;;;;;;1.13;1.00;;;;;;;;;;5060138;28;20445;-74
2023/04/13 02:12:50;;;;;;;1.30;1.20;;;;;;;;;;5060774;28;20458;-76
2023/04/13 02:15:25;;;;;;;1.60;0.97;;;;;;;;;;5060593;28;20544;-76
2023/04/13 02:17:59;;;;;;;1.30;1.00;;;;;;;;;;5053859;28;20469;-76
2023/04/13 02:20:31;;;;;;;0.93;0.93;;;;;;;;;;5041627;28;20447;-75
2023/04/13 02:23:03;;;;;;;1.20;1.10;;;;;;;;;;5040138;28;20442;-76
2023/04/13 02:25:33;;;;;;;1.00;1.00;;;;;;;;;;5041497;28;20482;-75
2023/04/13 02:30:50;;;;;;;1.63;1.20;;;;;;;;;;5038651;28;20465;-76
2023/04/13 02:33:20;;;;;;;1.47;1.20;;;;;;;;;;5041585;28;20480;-76
2023/04/13 02:35:51;;;;;;;1.20;1.20;;;;;;;;;;5043788;28;20491;-76
2023/04/13 02:38:27;;;;;;;1.20;1.20;;;;;;;;;;5046290;28;20502;-76
2023/04/13 02:41:10;;;;;;;1.23;1.23;;;;;;;;;;5046030;28;20477;-75
2023/04/13 02:43:44;;;;;;;1.53;1.43;;;;;;;;;;5042948;28;20446;-75
2023/04/13 02:46:27;;;;;;;1.50;1.40;;;;;;;;;;5041511;28;20448;-75
2023/04/13 02:49:07;;;;;;;1.10;1.10;;;;;;;;;;5041532;28;20446;-75
2023/04/13 02:51:41;;;;;;;1.17;1.10;;;;;;;;;;5039929;28;20481;-76
2023/04/13 02:54:12;;;;;;;1.80;1.30;;;;;;;;;;5039815;28;20454;-75
2023/04/13 02:56:46;;;;;;;1.23;1.10;;;;;;;;;;5039263;28;20485;-74
2023/04/13 02:59:16;;;;;;;1.17;1.07;;;;;;;;;;5038634;28;20461;-75
2023/04/13 03:01:46;;;;;;;2.67;1.27;;;;;;;;;;5040421;28;20806;-75
2023/04/13 03:04:18;;;;;;;1.33;1.07;;;;;;;;;;5038455;28;20478;-75
2023/04/13 03:06:54;;;;;;;1.00;1.00;;;;;;;;;;5038994;28;20508;-76
2023/04/13 03:09:33;;;;;;;1.43;0.80;;;;;;;;;;5038585;28;20541;-76
2023/04/13 03:12:02;;;;;;;1.50;1.40;;;;;;;;;;5040153;28;20462;-76
2023/04/13 03:14:32;;;;;;;2.57;1.17;;;;;;;;;;5037456;28;20451;-77
2023/04/13 03:17:01;;;;;;;1.87;1.23;;;;;;;;;;5036408;28;20478;-76
2023/04/13 03:19:38;;;;;;;1.73;1.00;;;;;;;;;;5015909;28;20448;-76
2023/04/13 03:22:07;;;;;;;1.60;0.97;;;;;;;;;;5015170;28;20486;-76
2023/04/13 03:24:42;;;;;;;1.67;1.00;;;;;;;;;;5014586;28;20568;-77
2023/04/13 03:27:22;;;;;;;1.43;1.30;;;;;;;;;;5015530;28;20499;-77
2023/04/13 03:29:53;;;;;;;1.57;1.20;;;;;;;;;;5015561;28;20490;-77
2023/04/13 03:32:27;;;;;;;1.10;1.10;;;;;;;;;;5015855;28;20447;-75
2023/04/13 03:34:56;;;;;;;3.17;1.20;;;;;;;;;;5015026;28;20975;-75
2023/04/13 03:37:31;;;;;;;1.30;1.20;;;;;;;;;;5015659;28;20475;-75
2023/04/13 03:39:59;;;;;;;1.20;1.20;;;;;;;;;;5015591;28;20455;-76
2023/04/13 03:42:28;;;;;;;1.17;1.17;;;;;;;;;;5014799;28;20479;-75
2023/04/13 03:44:58;;;;;;;1.30;1.20;;;;;;;;;;5013980;28;20568;-75
2023/04/13 03:47:29;;;;;;;2.40;1.20;;;;;;;;;;5013119;28;20483;-76
2023/04/13 03:50:04;;;;;;;1.20;0.93;;;;;;;;;;5013903;28;20464;-76
2023/04/13 03:52:37;;;;;;;1.37;1.27;;;;;;;;;;5013164;28;20551;-76
2023/04/13 03:55:06;;;;;;;1.50;1.13;;;;;;;;;;5011726;28;20451;-75
2023/04/13 03:57:35;;;;;;;1.40;1.30;;;;;;;;;;5013194;28;20480;-76
2023/04/13 04:00:03;;;;;;;1.30;1.30;;;;;;;;;;5013085;28;20460;-76
2023/04/13 04:02:33;;;;;;;1.00;1.00;;;;;;;;;;5012752;28;20460;-76
2023/04/13 04:05:08;;;;;;;1.07;1.00;;;;;;;;;;5013584;28;20713;-76
2023/04/13 04:07:41;;;;;;;1.20;1.20;;;;;;;;;;5014092;28;20470;-77
2023/04/13 04:10:09;;;;;;;1.43;1.40;;;;;;;;;;5014182;28;20486;-76
2023/04/13 04:12:37;;;;;;;1.37;1.27;;;;;;;;;;5013693;28;20798;-75
2023/04/13 04:15:05;;;;;;;2.47;1.60;;;;;;;;;;5013405;28;20452;-75
2023/04/13 04:17:33;;;;;;;2.13;1.60;;;;;;;;;;5022093;28;20529;-77
2023/04/13 04:20:01;;;;;;;1.90;1.53;;;;;;;;;;5053289;28;20450;-77
2023/04/13 04:22:36;;;;;;;2.03;1.30;;;;;;;;;;5054347;28;21013;-75
2023/04/13 04:25:06;;;;;;;1.73;1.37;;;;;;;;;;5053801;28;20509;-76
2023/04/13 04:27:36;;;;;;;1.50;1.37;;;;;;;;;;5054083;28;20456;-75
2023/04/13 04:30:05;;;;;;;3.27;1.50;;;;;;;;;;5053822;28;20480;-75
2023/04/13 04:32:36;;;;;;;1.63;1.20;;;;;;;;;;5053963;28;20457;-76
2023/04/13 04:35:04;;;;;;;1.40;1.40;;;;;;;;;;5039949;28;20863;-75
2023/04/13 04:37:36;;;;;;;2.57;1.23;;;;;;;;;;5034047;28;20487;-77
2023/04/13 04:40:08;;;;;;;2.40;1.57;;;;;;;;;;5036215;28;20814;-75
2023/04/13 04:42:40;;;;;;;2.87;1.40;;;;;;;;;;5048073;28;20426;-76
2023/04/13 04:45:09;;;;;;;4.17;1.47;;;;;;;;;;5033515;28;20509;-76
2023/04/13 04:47:43;;;;;;;1.80;1.10;;;;;;;;;;5034814;28;20558;-76
2023/04/13 04:50:16;;;;;;;1.90;1.40;;;;;;;;;;5033812;28;20450;-76
2023/04/13 04:52:44;;;;;;;3.33;1.60;;;;;;;;;;5033152;28;20458;-76
2023/04/13 04:55:13;;;;;;;1.60;1.40;;;;;;;;;;5033935;28;20455;-77
2023/04/13 04:57:48;;;;;;;2.10;1.37;;;;;;;;;;5033103;28;20481;-76
2023/04/13 05:00:19;;;;;;;1.67;1.57;;;;;;;;;;5033472;28;20473;-75
2023/04/13 05:02:50;;;;;;;1.80;1.30;;;;;;;;;;5032989;28;20821;-75
2023/04/13 05:05:19;;;;;;;2.83;1.60;;;;;;;;;;5037315;28;20565;-75
2023/04/13 05:07:50;;;;;;;2.07;1.50;;;;;;;;;;5042827;28;20474;-75
2023/04/13 05:10:23;;;;;;;2.67;1.40;;;;;;;;;;5039759;28;20497;-76
2023/04/13 05:12:50;;;;;;;1.63;1.33;;;;;;;;;;5037038;28;20450;-76
2023/04/13 05:15:18;;;;;;;4.37;1.83;;;;;;;;;;5036235;28;20508;-76
2023/04/13 05:17:45;;;;;;;4.13;1.50;;;;;;;;;;5038524;28;20477;-76
2023/04/13 05:20:13;;;;;;;2.93;1.60;;;;;;;;;;5038944;28;20482;-76
2023/04/13 05:22:42;;;;;;;1.70;1.53;;;;;;;;;;5037709;28;20454;-75
2023/04/13 05:25:10;;;;;;;1.77;1.53;;;;;;;;;;5034190;28;20513;-76
2023/04/13 05:27:39;;;;;;;3.60;1.70;;;;;;;;;;5029304;28;20457;-80
2023/04/13 05:30:07;;;;;;;3.60;2.23;;;;;;;;;;5028996;28;20831;-77
2023/04/13 05:32:36;;;;;;;2.20;1.60;;;;;;;;;;5028861;28;20458;-77
2023/04/13 05:35:04;;;;;;;3.20;2.37;;;;;;;;;;5028286;28;20461;-77
2023/04/13 05:37:32;;;;;;;2.23;1.70;;;;;;;;;;5028848;28;20913;-76
2023/04/13 05:39:59;;;;;;;5.20;2.13;;;;;;;;;;5029754;28;20620;-77
2023/04/13 05:42:27;;;;;;;3.60;1.80;;;;;;;;;;5032914;28;20945;-78
2023/04/13 05:45:02;;;;;;;4.57;2.93;;;;;;;;;;5032891;28;20561;-76
2023/04/13 05:47:40;;;;;;;6.50;2.40;;;;;;;;;;5033548;28;20557;-76
2023/04/13 05:50:13;;;;;;;3.47;2.33;;;;;;;;;;5034908;28;20464;-77
2023/04/13 05:52:41;;;;;;;1.70;1.50;;;;;;;;;;5034408;28;20450;-77
2023/04/13 05:55:10;;;;;;;2.77;1.57;;;;;;;;;;5033986;28;20450;-78
2023/04/13 05:57:37;;;;;;;2.40;1.40;;;;;;;;;;5034550;28;20493;-77
2023/04/13 06:00:09;;;;;;;3.37;1.43;;;;;;;;;;5032620;28;20469;-77
2023/04/13 06:02:39;;;;;;;2.63;1.50;;;;;;;;;;5033614;28;20619;-77
2023/04/13 06:05:13;;;;;;;3.40;1.50;;;;;;;;;;5031991;28;20489;-78
2023/04/13 06:07:49;;;;;;;2.20;1.53;;;;;;;;;;5033220;28;20981;-79
2023/04/13 06:10:18;;;;;;;1.80;1.30;;;;;;;;;;5032933;28;20469;-77
2023/04/13 06:12:51;;;;;;;3.30;1.83;;;;;;;;;;5029870;28;20459;-77
2023/04/13 06:15:20;;;;;;;2.00;1.53;;;;;;;;;;5029697;28;20441;-77
2023/04/13 06:17:50;;;;;;;3.67;1.40;;;;;;;;;;5037407;28;20458;-79
2023/04/13 06:20:18;;;;;;;6.93;1.63;;;;;;;;;;5053659;28;20548;-78
2023/04/13 06:22:49;;;;;;;4.10;1.93;;;;;;;;;;5052961;28;20452;-77
2023/04/13 06:25:16;;;;;;;1.63;1.40;;;;;;;;;;5053184;28;20486;-77
2023/04/13 06:27:45;;;;;;;2.83;1.33;;;;;;;;;;5053599;28;20564;-78
2023/04/13 06:30:13;;;;;;;4.37;1.80;;;;;;;;;;5053235;28;20453;-75
2023/04/13 06:32:43;;;;;;;5.13;1.70;;;;;;;;;;5053243;28;20466;-76
2023/04/13 06:35:11;;;;;;;2.97;1.40;;;;;;;;;;5052946;28;20473;-78
2023/04/13 06:37:41;;;;;;;6.70;2.10;;;;;;;;;;5053828;28;20469;-77
2023/04/13 06:40:11;;;;;;;4.53;1.43;;;;;;;;;;5052403;28;20457;-77
2023/04/13 06:42:42;;;;;;;2.23;1.90;;;;;;;;;;5052652;28;20450;-77
2023/04/13 06:45:10;;;;;;;2.60;1.50;;;;;;;;;;5052878;28;20465;-76
2023/04/13 06:47:41;;;;;;;3.20;1.90;;;;;;;;;;5064906;28;20462;-77
2023/04/13 06:50:12;;;;;;;2.40;1.40;;;;;;;;;;5079573;28;20464;-75
2023/04/13 06:52:43;;;;;;;1.40;1.27;;;;;;;;;;5080354;28;20426;-76
2023/04/13 06:55:11;;;;;;;6.20;2.63;;;;;;;;;;5080821;28;20495;-73
2023/04/13 06:57:39;;;;;;;7.30;1.90;;;;;;;;;;5080329;28;20482;-76
2023/04/13 07:00:09;;;;;;;2.00;1.40;;;;;;;;;;5080357;28;20402;-74
2023/04/13 07:02:39;;;;;;;2.50;1.40;;;;;;;;;;5079248;28;20460;-74
2023/04/13 07:05:12;;;;;;;3.47;1.20;;;;;;;;;;5065352;28;20956;-77
2023/04/13 07:07:43;;;;;;;3.37;1.63;;;;;;;;;;5040847;28;20561;-76
2023/04/13 07:10:14;;;;;;;4.73;2.00;;;;;;;;;;5040747;28;20455;-77
2023/04/13 07:12:50;;;;;;;2.00;1.57;;;;;;;;;;5039326;28;21039;-76
2023/04/13 07:15:19;;;;;;;3.07;1.47;;;;;;;;;;5038553;28;20549;-75
2023/04/13 07:17:48;;;;;;;3.50;1.33;;;;;;;;;;5043117;28;20467;-77
2023/04/13 07:20:16;;;;;;;6.60;1.80;;;;;;;;;;5056374;28;20480;-76
2023/04/13 07:22:45;;;;;;;2.37;1.60;;;;;;;;;;5055307;28;20540;-79
2023/04/13 07:25:16;;;;;;;1.43;1.33;;;;;;;;;;5058008;28;20455;-77
2023/04/13 07:27:45;;;;;;;4.93;1.93;;;;;;;;;;5057466;28;20460;-78
2023/04/13 07:30:18;;;;;;;3.30;1.97;;;;;;;;;;5060233;28;20453;-77
2023/04/13 07:32:47;;;;;;;3.43;1.67;;;;;;;;;;5058063;28;20450;-75
2023/04/13 07:35:18;;;;;;;4.03;1.80;;;;;;;;;;5058624;28;20964;-77
2023/04/13 07:37:49;;;;;;;2.83;2.10;;;;;;;;;;5057286;28;20504;-77
2023/04/13 07:40:21;;;;;;;2.40;1.30;;;;;;;;;;5057519;28;20457;-76
2023/04/13 07:42:54;;;;;;;4.40;1.50;;;;;;;;;;5058647;28;20453;-76
2023/04/13 07:45:28;;;;;;;5.83;1.90;;;;;;;;;;5060228;28;20548;-76
2023/04/13 07:47:57;;;;;;;3.20;1.53;;;;;;;;;;5061215;28;20496;-76
2023/04/13 07:50:28;;;;;;;2.30;1.50;;;;;;;;;;5059475;28;20460;-78
2023/04/13 07:53:06;;;;;;;2.27;1.50;;;;;;;;;;5060830;28;20489;-76
2023/04/13 07:56:03;;;;;;;;;;;;;;;;;;;;;
2023/04/13 07:58:41;;;;;;;3.43;1.60;;;;;;;;;;5060598;28;20452;-77
2023/04/13 08:01:14;;;;;;;4.83;2.00;;;;;;;;;;5056955;28;20540;-77
2023/04/13 08:03:41;;;;;;;4.50;1.40;;;;;;;;;;5056495;28;21021;-76
2023/04/13 08:06:09;;;;;;;3.97;1.87;;;;;;;;;;5058199;28;20485;-77
2023/04/13 08:08:38;;;;;;;4.27;1.63;;;;;;;;;;5057845;28;20429;-74
2023/04/13 08:11:07;;;;;;;3.27;1.70;;;;;;;;;;5058122;28;20442;-77
2023/04/13 08:13:42;;;;;;;6.70;2.17;;;;;;;;;;5056733;28;20805;-76
2023/04/13 08:16:11;;;;;;;5.40;2.00;;;;;;;;;;5058074;28;20468;-75
2023/04/13 08:18:38;;;;;;;1.80;1.70;;;;;;;;;;5058624;28;20461;-76
2023/04/13 08:21:11;;;;;;;4.33;2.23;;;;;;;;;;5058942;28;20442;-76
2023/04/13 08:23:40;;;;;;;2.63;1.83;;;;;;;;;;5058657;28;20453;-76
2023/04/13 08:26:08;;;;;;;4.83;1.87;;;;;;;;;;5058601;28;21270;-76
2023/04/13 08:28:41;;;;;;;2.57;1.70;;;;;;;;;;5058392;28;20976;-77
2023/04/13 08:31:44;;;;;;;4.90;1.83;;;;;;;;;;5058425;28;20492;-76
2023/04/13 08:40:23;;;;;;;3.47;1.70;;;;;;;;;;5037152;28;20450;-74
2023/04/13 08:43:04;;;;;;;1.60;1.30;;;;;;;;;;5041571;28;20481;-76
2023/04/13 08:45:36;;;;;;;2.50;1.80;;;;;;;;;;5043048;28;20523;-74
2023/04/13 08:48:04;;;;;;;3.80;1.30;;;;;;;;;;5040376;28;20489;-76
2023/04/13 08:50:36;;;;;;;5.10;1.77;;;;;;;;;;5042060;28;20454;-76
2023/04/13 08:53:04;;;;;;;4.70;1.90;;;;;;;;;;5042846;28;20532;-77
2023/04/13 08:55:34;;;;;;;7.67;1.80;;;;;;;;;;5039345;28;20447;-75
2023/04/13 08:58:07;;;;;;;4.67;1.83;;;;;;;;;;5043626;28;20438;-79
2023/04/13 09:00:52;;;;;;;2.93;1.87;;;;;;;;;;5044731;28;20462;-77
2023/04/13 09:03:23;;;;;;;1.93;1.60;;;;;;;;;;5035155;28;20542;-77
2023/04/13 09:05:55;;;;;;;3.77;1.90;;;;;;;;;;5037084;28;20522;-76
2023/04/13 09:08:24;;;;;;;3.30;1.43;;;;;;;;;;5045047;28;20450;-79
2023/04/13 09:10:58;;;;;;;3.40;1.97;;;;;;;;;;5042103;28;20474;-76
2023/04/13 09:13:26;;;;;;;2.93;1.73;;;;;;;;;;5040482;28;20478;-77
2023/04/13 09:15:53;;;;;;;2.93;1.77;;;;;;;;;;5042963;28;20431;-77
2023/04/13 09:18:27;;;;;;;4.40;1.83;;;;;;;;;;5044305;28;20454;-75
2023/04/13 09:21:23;;;;;;;;;;;;;;;;;;;;;
2023/04/13 09:24:12;;;;;;;3.87;1.70;;;;;;;;;;5053197;28;20423;-76
2023/04/13 09:27:08;;;;;;;2.97;1.33;;;;;;;;;;5054430;28;20466;-77
2023/04/13 09:29:38;;;;;;;3.27;1.77;;;;;;;;;;5055663;28;20439;-79
2023/04/13 09:32:07;;;;;;;5.33;2.00;;;;;;;;;;5055774;28;20426;-76
2023/04/13 09:34:38;;;;;;;3.63;1.37;;;;;;;;;;5056229;28;20527;-76
2023/04/13 09:37:17;;;;;;;8.13;2.07;;;;;;;;;;5054829;28;20462;-77
2023/04/13 09:39:48;;;;;;;5.57;2.33;;;;;;;;;;5055393;28;20450;-77
2023/04/13 09:42:23;;;;;;;6.70;2.20;;;;;;;;;;5055629;28;20449;-78
2023/04/13 09:48:03;;;;;;;4.43;1.53;;;;;;;;;;5054927;28;20469;-76
2023/04/13 09:50:51;;;;;;;;;;;;;;;;;;;;;
2023/04/13 09:56:16;;;;;;;3.93;1.10;;;;;;;;;;5047454;28;20463;-77
2023/04/13 09:58:54;;;;;;;3.33;2.00;;;;;;;;;;5051184;28;20521;-78
2023/04/13 10:01:28;;;;;;;4.80;1.60;;;;;;;;;;5046309;28;20525;-77
2023/04/13 10:04:21;;;;;;;3.87;1.73;;;;;;;;;;5048275;28;20446;-77
2023/04/13 10:06:52;;;;;;;3.17;1.33;;;;;;;;;;5047033;28;20485;-79
2023/04/13 10:09:20;;;;;;;3.83;1.67;;;;;;;;;;5052336;28;20461;-79
2023/04/13 10:11:53;;;;;;;1.50;1.27;;;;;;;;;;5053267;28;20430;-77
2023/04/13 10:14:28;;;;;;;4.40;1.60;;;;;;;;;;5052347;28;20447;-77
2023/04/13 10:17:14;;;;;;;4.67;2.10;;;;;;;;;;5053889;28;20466;-77
2023/04/13 10:19:56;;;;;;;3.87;1.80;;;;;;;;;;5051866;28;20514;-78
2023/04/13 10:22:33;;;;;;;2.57;1.63;;;;;;;;;;5052132;28;20496;-77
2023/04/13 10:25:10;;;;;;;3.70;1.47;;;;;;;;;;5051629;28;20502;-77
2023/04/13 10:27:38;;;;;;;2.40;1.60;;;;;;;;;;5051414;28;20474;-78
2023/04/13 10:30:20;;;;;;;7.27;1.50;;;;;;;;;;5051983;28;20459;-77
2023/04/13 10:33:10;;;;;;;3.53;1.80;;;;;;;;;;5051269;28;20458;-78
2023/04/13 10:35:58;;;;;;;5.93;2.10;;;;;;;;;;5051609;28;20488;-76
2023/04/13 10:38:26;;;;;;;5.83;1.97;;;;;;;;;;5052199;28;20476;-78
2023/04/13 10:41:03;;;;;;;4.70;1.60;;;;;;;;;;5046771;28;20454;-78
2023/04/13 10:46:18;;;;;;;7.00;1.80;;;;;;;;;;5040467;28;20532;-79
2023/04/13 10:51:42;;;;;;;8.43;1.97;;;;;;;;;;5040413;28;20561;-77
2023/04/13 10:54:10;;;;;;;8.33;2.70;;;;;;;;;;5040819;28;20508;-79
2023/04/13 10:56:44;;;;;;;5.57;2.13;;;;;;;;;;5041878;28;20446;-76
2023/04/13 10:59:15;;;;;;;6.37;2.00;;;;;;;;;;5040328;28;20460;-76
2023/04/13 11:01:48;;;;;;;5.70;2.43;;;;;;;;;;5041762;28;20930;-78
2023/04/13 11:04:17;;;;;;;5.53;2.07;;;;;;;;;;5040903;28;20522;-78
2023/04/13 11:06:47;;;;;;;6.20;2.00;;;;;;;;;;5043168;28;20478;-78
2023/04/13 11:09:18;;;;;;;1.80;1.43;;;;;;;;;;5037013;28;20517;-77
2023/04/13 11:11:54;;;;;;;4.73;2.20;;;;;;;;;;5036172;28;20505;-76
2023/04/13 11:14:31;;;;;;;4.47;2.20;;;;;;;;;;5035815;28;20457;-79
2023/04/13 11:17:02;;;;;;;3.40;1.93;;;;;;;;;;5036133;28;20477;-75
2023/04/13 11:19:30;;;;;;;5.83;2.00;;;;;;;;;;5035139;28;20480;-77
2023/04/13 11:22:05;;;;;;;4.67;2.40;;;;;;;;;;5035730;28;20450;-77
2023/04/13 11:24:37;;;;;;;3.20;1.57;;;;;;;;;;5035160;28;20458;-77
2023/04/13 11:27:21;;;;;;;9.53;2.57;;;;;;;;;;5040535;28;20479;-77
2023/04/13 11:30:04;;;;;;;2.37;1.77;;;;;;;;;;5045020;28;20450;-78
2023/04/13 11:32:33;;;;;;;3.80;1.83;;;;;;;;;;5046093;28;20435;-78
2023/04/13 11:35:08;;;;;;;5.10;2.53;;;;;;;;;;5044093;28;20461;-76
2023/04/13 11:37:40;;;;;;;5.87;1.80;;;;;;;;;;5043610;28;20471;-79
2023/04/13 11:40:15;;;;;;;5.20;1.80;;;;;;;;;;5048961;28;20502;-78
2023/04/13 11:42:44;;;;;;;5.60;2.43;;;;;;;;;;5051566;28;20450;-79
2023/04/13 11:45:15;;;;;;;3.20;2.00;;;;;;;;;;5050197;28;20450;-78
2023/04/13 11:47:44;;;;;;;3.50;2.03;;;;;;;;;;5051394;28;20482;-77
2023/04/13 11:50:13;;;;;;;3.20;2.10;;;;;;;;;;5051754;28;20535;-77
2023/04/13 11:52:45;;;;;;;6.73;1.97;;;;;;;;;;5050824;28;20565;-78
2023/04/13 11:55:16;;;;;;;7.67;2.73;;;;;;;;;;5054458;28;20455;-77
2023/04/13 11:57:46;;;;;;;2.67;1.50;;;;;;;;;;5053765;28;20478;-75
2023/04/13 12:00:17;;;;;;;4.73;2.00;;;;;;;;;;5054576;28;20469;-78
2023/04/13 12:02:49;;;;;;;3.70;1.70;;;;;;;;;;5053376;28;20446;-77
2023/04/13 12:05:24;;;;;;;6.60;1.67;;;;;;;;;;5054508;28;20442;-76
2023/04/13 12:07:57;;;;;;;3.53;2.03;;;;;;;;;;5052831;28;20498;-76
2023/04/13 12:10:27;;;;;;;4.90;2.03;;;;;;;;;;5052634;28;20463;-77
2023/04/13 12:12:59;;;;;;;4.90;2.23;;;;;;;;;;5050862;28;20446;-77
2023/04/13 12:15:29;;;;;;;4.63;1.97;;;;;;;;;;5038490;28;20443;-77
2023/04/13 12:18:02;;;;;;;4.53;2.40;;;;;;;;;;5043194;28;20474;-78
2023/04/13 12:20:38;;;;;;;7.67;2.17;;;;;;;;;;5039182;28;20920;-77
2023/04/13 12:23:20;;;;;;;3.30;1.40;;;;;;;;;;5038963;28;20470;-77
2023/04/13 12:25:57;;;;;;;3.67;1.90;;;;;;;;;;5048591;28;20462;-78
2023/04/13 12:28:34;;;;;;;5.80;1.50;;;;;;;;;;5054950;28;20498;-77
2023/04/13 12:31:07;;;;;;;3.00;1.70;;;;;;;;;;5057236;28;20457;-77
2023/04/13 12:33:36;;;;;;;4.53;1.70;;;;;;;;;;5057129;28;20668;-77
2023/04/13 12:36:10;;;;;;;3.30;2.23;;;;;;;;;;5056832;28;20462;-78
2023/04/13 12:38:45;;;;;;;3.03;2.00;;;;;;;;;;5056786;28;20501;-77
2023/04/13 12:41:14;;;;;;;3.90;2.43;;;;;;;;;;5050075;28;20431;-76
2023/04/13 12:43:45;;;;;;;3.07;1.80;;;;;;;;;;5040491;28;20451;-79
2023/04/13 12:46:17;;;;;;;2.30;1.70;;;;;;;;;;5039232;28;20562;-77
2023/04/13 12:48:46;;;;;;;3.50;1.87;;;;;;;;;;5038071;28;20474;-78
2023/04/13 12:51:21;;;;;;;3.33;2.23;;;;;;;;;;5038892;28;20513;-77
2023/04/13 12:53:59;;;;;;;2.90;1.93;;;;;;;;;;5039023;28;20460;-78
2023/04/13 12:56:30;;;;;;;3.27;2.17;;;;;;;;;;5041811;28;20474;-77
2023/04/13 12:59:04;;;;;;;3.10;2.07;;;;;;;;;;5040381;28;20450;-77
2023/04/13 13:01:48;;;;;;;7.60;2.70;;;;;;;;;;5039338;28;20457;-77
2023/04/13 13:04:32;;;;;;;5.40;2.20;;;;;;;;;;5039127;28;20504;-78
2023/04/13 13:07:14;;;;;;;2.50;2.00;;;;;;;;;;5039139;28;20459;-79
2023/04/13 13:10:02;;;;;;;5.10;2.30;;;;;;;;;;5037427;28;20505;-77
2023/04/13 13:12:39;;;;;;;3.97;1.90;;;;;;;;;;5035366;28;20458;-79
2023/04/13 13:15:14;;;;;;;2.90;2.10;;;;;;;;;;5031809;28;20454;-77
2023/04/13 13:17:49;;;;;;;3.03;2.40;;;;;;;;;;5038609;28;20461;-77
2023/04/13 13:20:29;;;;;;;4.10;3.20;;;;;;;;;;5053919;28;20449;-80
2023/04/13 13:23:06;;;;;;;5.73;3.20;;;;;;;;;;5054099;28;20461;-78
2023/04/13 13:25:46;;;;;;;4.07;3.00;;;;;;;;;;5054415;28;20461;-79
2023/04/13 13:28:24;;;;;;;6.50;3.60;;;;;;;;;;5054216;28;20477;-77
2023/04/13 13:31:02;;;;;;;6.03;2.80;;;;;;;;;;5054659;28;20595;-78
2023/04/13 13:33:37;;;;;;;4.23;2.73;;;;;;;;;;5056008;28;20480;-77
2023/04/13 13:36:11;;;;;;;2.80;2.47;;;;;;;;;;5057454;28;20485;-78
2023/04/13 13:38:45;;;;;;;2.93;2.40;;;;;;;;;;5057584;28;20999;-77
2023/04/13 13:41:27;;;;;;;4.33;2.60;;;;;;;;;;5052659;28;20961;-76
2023/04/13 13:44:02;;;;;;;3.80;2.00;;;;;;;;;;5055600;28;20457;-79
2023/04/13 13:46:33;;;;;;;2.30;1.80;;;;;;;;;;5054237;28;20476;-77
2023/04/13 13:49:05;;;;;;;3.10;1.83;;;;;;;;;;5054464;28;20496;-79
2023/04/13 13:51:39;;;;;;;2.37;1.80;;;;;;;;;;5054291;28;20454;-78
2023/04/13 13:54:10;;;;;;;3.73;2.40;;;;;;;;;;5054148;28;20453;-77
2023/04/13 13:56:39;;;;;;;4.00;2.20;;;;;;;;;;5053798;28;20469;-77
2023/04/13 13:59:07;;;;;;;4.53;2.13;;;;;;;;;;5054548;28;20442;-77
2023/04/13 14:01:38;;;;;;;2.50;1.53;;;;;;;;;;5056030;28;20477;-76
2023/04/13 14:04:08;;;;;;;3.93;2.03;;;;;;;;;;5056379;28;20434;-77
2023/04/13 14:06:37;;;;;;;3.87;2.40;;;;;;;;;;5054724;28;20545;-78
2023/04/13 14:09:06;;;;;;;2.87;1.77;;;;;;;;;;5055613;28;20907;-79
2023/04/13 14:11:36;;;;;;;1.33;1.33;;;;;;;;;;5055339;28;20469;-78
2023/04/13 14:14:08;;;;;;;2.50;1.37;;;;;;;;;;5057544;28;20874;-80
2023/04/13 14:16:37;;;;;;;3.00;1.23;;;;;;;;;;5059092;28;20537;-78
2023/04/13 14:19:05;;;;;;;2.17;1.73;;;;;;;;;;5060182;28;20917;-77
2023/04/13 14:21:34;;;;;;;4.90;3.60;;;;;;;;;;5057715;28;20438;-78
2023/04/13 14:24:03;;;;;;;2.33;1.70;;;;;;;;;;5059716;28;20917;-78
2023/04/13 14:26:40;;;;;;;1.77;1.53;;;;;;;;;;5057520;28;20541;-79
2023/04/13 14:29:10;;;;;;;1.60;1.50;;;;;;;;;;5056737;28;20492;-77
2023/04/13 14:31:39;;;;;;;1.43;1.33;;;;;;;;;;5058289;28;20470;-79
2023/04/13 14:34:08;;;;;;;3.13;1.80;;;;;;;;;;5061443;28;20454;-78
2023/04/13 14:36:43;;;;;;;1.67;1.33;;;;;;;;;;5059764;28;20480;-79
2023/04/13 14:39:14;;;;;;;1.60;1.43;;;;;;;;;;5059633;28;20445;-79
2023/04/13 14:41:45;;;;;;;3.90;1.23;;;;;;;;;;5063294;28;20505;-79
2023/04/13 14:44:17;;;;;;;1.80;1.47;;;;;;;;;;5061453;28;20418;-78
2023/04/13 14:46:47;;;;;;;1.93;1.30;;;;;;;;;;5062127;28;20469;-78
2023/04/13 14:49:17;;;;;;;1.20;1.10;;;;;;;;;;5062022;28;20480;-79
2023/04/13 14:51:44;;;;;;;4.13;1.30;;;;;;;;;;5064869;28;20508;-78
2023/04/13 14:54:13;;;;;;;2.00;1.20;;;;;;;;;;5067781;28;20503;-76
2023/04/13 14:56:43;;;;;;;2.67;1.30;;;;;;;;;;5065164;28;20539;-76
2023/04/13 14:59:11;;;;;;;3.30;1.50;;;;;;;;;;5061892;28;20426;-77
2023/04/13 15:01:41;;;;;;;2.70;1.80;;;;;;;;;;5060493;28;20448;-78
2023/04/13 15:04:18;;;;;;;4.30;2.50;;;;;;;;;;5060770;28;20503;-79
2023/04/13 15:06:48;;;;;;;2.30;2.10;;;;;;;;;;5059715;28;20508;-78
2023/04/13 15:09:16;;;;;;;5.60;1.87;;;;;;;;;;5056771;28;20487;-78
2023/04/13 15:11:44;;;;;;;3.13;2.37;;;;;;;;;;5057821;28;20503;-79
2023/04/13 15:14:12;;;;;;;2.97;1.27;;;;;;;;;;5056616;28;20454;-77
2023/04/13 15:16:41;;;;;;;1.17;1.07;;;;;;;;;;5056332;28;20473;-78
2023/04/13 15:19:08;;;;;;;2.27;1.70;;;;;;;;;;5039691;28;20533;-77
2023/04/13 15:21:36;;;;;;;3.90;1.43;;;;;;;;;;5039903;28;20470;-79
2023/04/13 15:24:04;;;;;;;3.30;1.50;;;;;;;;;;5041057;28;20545;-77
2023/04/13 15:26:32;;;;;;;1.93;1.30;;;;;;;;;;5040735;28;20548;-79
2023/04/13 15:29:06;;;;;;;2.63;1.47;;;;;;;;;;5037208;28;20475;-78
2023/04/13 15:31:36;;;;;;;2.67;2.00;;;;;;;;;;5037098;28;20442;-79
2023/04/13 15:34:11;;;;;;;3.37;1.87;;;;;;;;;;5038627;28;20458;-76
2023/04/13 15:36:39;;;;;;;4.50;1.93;;;;;;;;;;5038653;28;20557;-77
2023/04/13 15:39:07;;;;;;;3.13;2.00;;;;;;;;;;5035307;28;20446;-76
2023/04/13 15:41:38;;;;;;;3.20;1.67;;;;;;;;;;5034886;28;20542;-75
2023/04/13 15:44:06;;;;;;;5.07;1.90;;;;;;;;;;5036432;28;20469;-77
2023/04/13 15:46:33;;;;;;;2.13;1.90;;;;;;;;;;5036434;28;20486;-77
2023/04/13 15:49:11;;;;;;;1.73;1.60;;;;;;;;;;5040387;28;20478;-76